createdAt,value
2022-12-19T00:00:06.765Z,99530.81
2022-12-19T00:03:13.975Z,99524.91
2022-12-19T00:06:17.721Z,99545.47
2022-12-19T00:09:21.726Z,99560.97
2022-12-19T00:12:24.251Z,99559.34
2022-12-19T00:15:26.810Z,99572.75
2022-12-19T00:18:29.560Z,99570.78
2022-12-19T00:21:34.950Z,99567.28
2022-12-19T00:24:39.308Z,99553.53
2022-12-19T00:27:41.680Z,99562.66
2022-12-19T00:30:44.256Z,99552.66
2022-12-19T00:33:47.416Z,99556.75
2022-12-19T00:36:50.119Z,99545.53
2022-12-19T00:39:54.048Z,99547.31
2022-12-19T00:42:56.612Z,99536.81
2022-12-19T00:46:03.573Z,99525.63
2022-12-19T00:49:07.231Z,99517.78
2022-12-19T00:52:09.907Z,99527.34
2022-12-19T00:55:18.775Z,99515.69
2022-12-19T00:58:22.149Z,99512.22
2022-12-19T01:01:26.951Z,99505.16
2022-12-19T01:04:31.269Z,99499.53
2022-12-19T01:07:35.114Z,99497.44
2022-12-19T01:10:39.333Z,99490.81
2022-12-19T01:13:41.102Z,99482.28
2022-12-19T01:16:44.697Z,99488.97
2022-12-19T01:19:47.271Z,99483.78
2022-12-19T01:22:49.872Z,99492.31
2022-12-19T01:25:55.430Z,99496.06
2022-12-19T01:28:58.056Z,99501.56
2022-12-19T01:32:00.727Z,99487.66
2022-12-19T01:35:03.370Z,99487.69
2022-12-19T01:38:08.553Z,99479.38
2022-12-19T01:41:12.736Z,99485.44
2022-12-19T01:44:15.089Z,99486.75
2022-12-19T01:47:17.854Z,99478.00
2022-12-19T01:50:23.205Z,99467.84
2022-12-19T01:53:29.243Z,99473.69
2022-12-19T01:56:36.079Z,99468.78
2022-12-19T01:59:41.533Z,99455.47
2022-12-19T02:02:46.509Z,99446.13
2022-12-19T02:05:49.321Z,99441.81
2022-12-19T02:08:52.470Z,99437.94
2022-12-19T02:11:56.421Z,99446.72
2022-12-19T02:15:02.535Z,99441.09
2022-12-19T02:18:12.546Z,99446.84
2022-12-19T02:21:34.725Z,99443.22
2022-12-19T02:25:01.593Z,99444.38
2022-12-19T02:28:17.422Z,99433.31
2022-12-19T02:31:26.849Z,99435.16
2022-12-19T02:34:32.879Z,99448.69
2022-12-19T02:37:38.539Z,99448.94
2022-12-19T02:40:43.545Z,99439.69
2022-12-19T02:43:49.067Z,99428.94
2022-12-19T02:46:57.914Z,99421.94
2022-12-19T02:50:00.862Z,99415.75
2022-12-19T02:53:03.407Z,99433.75
2022-12-19T02:56:23.202Z,99413.56
2022-12-19T02:59:36.859Z,99436.09
2022-12-19T03:03:00.413Z,99444.97
2022-12-19T03:06:04.859Z,99449.41
2022-12-19T03:09:12.694Z,99435.16
2022-12-19T03:12:19.791Z,99420.06
2022-12-19T03:15:23.192Z,99405.56
2022-12-19T03:18:27.762Z,99421.09
2022-12-19T03:21:33.949Z,99437.59
2022-12-19T03:24:36.599Z,99444.34
2022-12-19T03:27:40.447Z,99444.47
2022-12-19T03:30:44.297Z,99447.72
2022-12-19T03:33:48.337Z,99462.44
2022-12-19T03:36:55.018Z,99458.59
2022-12-19T03:40:03.956Z,99458.47
2022-12-19T03:43:10.397Z,99464.66
2022-12-19T03:46:16.839Z,99451.69
2022-12-19T03:49:20.915Z,99449.44
2022-12-19T03:52:27.697Z,99445.13
2022-12-19T03:55:34.182Z,99442.19
2022-12-19T03:58:39.990Z,99444.88
2022-12-19T04:01:43.373Z,99445.09
2022-12-19T04:04:50.028Z,99445.91
2022-12-19T04:07:54.893Z,99438.91
2022-12-19T04:11:02.025Z,99445.44
2022-12-19T04:14:07.924Z,99452.06
2022-12-19T04:17:14.664Z,99454.88
2022-12-19T04:20:20.580Z,99455.38
2022-12-19T04:23:26.125Z,99461.34
2022-12-19T04:26:29.342Z,99461.44
2022-12-19T04:29:33.523Z,99455.13
2022-12-19T04:32:36.910Z,99468.47
2022-12-19T04:35:40.892Z,99468.47
2022-12-19T04:38:43.521Z,99459.88
2022-12-19T04:41:46.201Z,99456.25
2022-12-19T04:44:48.845Z,99454.22
2022-12-19T04:47:51.426Z,99450.56
2022-12-19T04:50:56.499Z,99451.16
2022-12-19T04:53:59.196Z,99449.94
2022-12-19T04:57:01.830Z,99445.28
2022-12-19T05:00:07.068Z,99450.78
2022-12-19T05:03:09.713Z,99452.84
2022-12-19T05:06:15.153Z,99446.53
2022-12-19T05:09:18.014Z,99443.94
2022-12-19T05:12:20.745Z,99441.97
2022-12-19T05:15:23.490Z,99428.63
2022-12-19T05:18:26.572Z,99431.06
2022-12-19T05:21:30.438Z,99438.81
2022-12-19T05:24:32.966Z,99426.50
2022-12-19T05:27:36.192Z,99432.63
2022-12-19T05:30:38.769Z,99431.25
2022-12-19T05:33:42.190Z,99426.75
2022-12-19T05:36:46.634Z,99425.78
2022-12-19T05:39:49.228Z,99432.63
2022-12-19T05:42:51.869Z,99438.41
2022-12-19T05:45:55.730Z,99431.09
2022-12-19T05:48:59.290Z,99426.28
2022-12-19T05:52:03.767Z,99432.56
2022-12-19T05:55:12.117Z,99425.63
2022-12-19T05:58:14.811Z,99430.84
2022-12-19T06:01:19.640Z,99422.59
2022-12-19T06:04:22.305Z,99417.94
2022-12-19T06:07:26.626Z,99415.41
2022-12-19T06:10:29.182Z,99417.28
2022-12-19T06:13:32.334Z,99414.25
2022-12-19T06:16:34.950Z,99408.53
2022-12-19T06:19:37.600Z,99414.91
2022-12-19T06:22:41.815Z,99409.59
2022-12-19T06:25:44.318Z,99414.97
2022-12-19T06:28:47.103Z,99417.75
2022-12-19T06:31:49.925Z,99418.06
2022-12-19T06:35:09.450Z,99413.59
2022-12-19T06:38:13.664Z,99415.34
2022-12-19T06:41:34.023Z,99409.31
2022-12-19T06:44:36.922Z,99408.31
2022-12-19T06:47:39.521Z,99392.50
2022-12-19T06:50:42.465Z,99401.66
2022-12-19T06:53:46.460Z,99402.94
2022-12-19T06:56:49.328Z,99395.50
2022-12-19T06:59:51.978Z,99401.84
2022-12-19T07:02:54.866Z,99408.13
2022-12-19T07:05:57.585Z,99409.56
2022-12-19T07:09:01.469Z,99414.88
2022-12-19T07:12:06.240Z,99407.31
2022-12-19T07:15:09.216Z,99396.00
2022-12-19T07:18:12.049Z,99394.19
2022-12-19T07:21:14.726Z,99397.53
2022-12-19T07:24:18.826Z,99400.31
2022-12-19T07:27:29.738Z,99395.91
2022-12-19T07:30:36.503Z,99397.97
2022-12-19T07:33:39.151Z,99393.00
2022-12-19T07:36:41.737Z,99403.84
2022-12-19T07:39:46.307Z,99404.06
2022-12-19T07:42:49.168Z,99414.25
2022-12-19T07:45:55.042Z,99418.44
2022-12-19T07:49:01.262Z,99415.66
2022-12-19T07:52:04.620Z,99409.38
2022-12-19T07:55:09.991Z,99404.34
2022-12-19T07:58:12.557Z,99406.50
2022-12-19T08:01:15.203Z,99405.09
2022-12-19T08:04:17.833Z,99411.03
2022-12-19T08:07:20.438Z,99406.78
2022-12-19T08:10:24.538Z,99411.44
2022-12-19T08:13:30.066Z,99414.19
2022-12-19T08:16:55.750Z,99412.41
2022-12-19T08:19:59.873Z,99418.13
2022-12-19T08:23:02.426Z,99432.56
2022-12-19T08:26:08.927Z,99434.59
2022-12-19T08:29:11.509Z,99437.50
2022-12-19T08:32:20.472Z,99431.03
2022-12-19T08:35:23.705Z,99436.16
2022-12-19T08:38:26.732Z,99428.47
2022-12-19T08:41:30.726Z,99422.31
2022-12-19T08:44:34.053Z,99422.19
2022-12-19T08:47:36.717Z,99424.25
2022-12-19T08:50:39.360Z,99415.44
2022-12-19T08:53:43.061Z,99416.38
2022-12-19T08:56:47.316Z,99411.78
2022-12-19T08:59:50.094Z,99416.31
2022-12-19T09:02:54.010Z,99415.56
2022-12-19T09:06:07.035Z,99411.00
2022-12-19T09:09:13.121Z,99412.63
2022-12-19T09:12:17.623Z,99392.13
2022-12-19T09:15:20.395Z,99403.50
2022-12-19T09:18:24.195Z,99407.50
2022-12-19T09:21:28.934Z,99397.53
2022-12-19T09:24:31.613Z,99398.69
2022-12-19T09:28:01.190Z,99411.44
2022-12-19T09:30:59.202Z,99418.22
2022-12-19T09:34:02.422Z,99412.25
2022-12-19T09:37:05.116Z,99404.09
2022-12-19T09:40:11.030Z,99404.63
2022-12-19T09:43:23.726Z,99402.16
2022-12-19T09:46:32.626Z,99400.75
2022-12-19T09:49:39.939Z,99406.91
2022-12-19T09:52:51.052Z,99401.50
2022-12-19T09:55:54.213Z,99396.47
2022-12-19T09:59:02.664Z,99387.97
2022-12-19T10:02:19.146Z,99384.31
2022-12-19T10:05:52.333Z,99383.84
2022-12-19T10:10:03.910Z,99380.88
2022-12-19T10:12:39.946Z,99382.47
2022-12-19T10:15:56.152Z,99375.19
2022-12-19T10:19:04.932Z,99365.25
2022-12-19T10:22:18.699Z,99353.59
2022-12-19T10:25:38.602Z,99353.81
2022-12-19T10:28:52.931Z,99358.19
2022-12-19T10:32:01.602Z,99359.09
2022-12-19T10:35:13.945Z,99348.28
2022-12-19T10:38:23.623Z,99359.22
2022-12-19T10:41:27.974Z,99349.72
2022-12-19T10:44:31.706Z,99338.75
2022-12-19T10:47:35.655Z,99339.09
2022-12-19T10:50:38.211Z,99336.50
2022-12-19T10:53:40.893Z,99345.53
2022-12-19T10:56:47.926Z,99347.88
2022-12-19T10:59:56.541Z,99344.00
2022-12-19T11:03:12.895Z,99333.66
2022-12-19T11:06:43.442Z,99314.41
2022-12-19T11:09:54.723Z,99305.31
2022-12-19T11:18:26.837Z,99315.41
2022-12-19T11:22:07.370Z,99309.69
2022-12-19T11:29:25.302Z,99312.53
2022-12-19T11:29:25.646Z,99303.97
2022-12-19T11:30:39.631Z,99308.94
2022-12-19T11:34:29.765Z,99291.09
2022-12-19T11:37:39.075Z,99291.72
2022-12-19T11:40:49.548Z,99282.88
2022-12-19T11:43:55.164Z,99275.28
2022-12-19T11:47:03.773Z,99259.13
2022-12-19T11:50:13.027Z,99263.09
2022-12-19T11:53:22.221Z,99267.16
2022-12-19T11:56:27.774Z,99264.91
2022-12-19T11:59:32.843Z,99253.22
2022-12-19T12:02:50.677Z,99260.81
2022-12-19T12:05:55.330Z,99248.59
2022-12-19T12:11:13.041Z,99256.53
2022-12-19T12:20:33.143Z,99257.88
2022-12-19T12:28:52.489Z,99247.63
2022-12-19T12:31:01.414Z,99252.19
2022-12-19T12:31:38.890Z,99257.84
2022-12-19T12:32:03.363Z,99254.63
2022-12-19T12:32:05.580Z,99230.28
2022-12-19T12:35:47.066Z,99235.66
2022-12-19T12:40:36.278Z,99224.25
2022-12-19T12:44:01.741Z,99220.97
2022-12-19T12:47:11.375Z,99211.78
2022-12-19T12:50:17.211Z,99210.91
2022-12-19T12:53:22.947Z,99216.78
2022-12-19T12:56:25.891Z,99221.13
2022-12-19T12:59:31.337Z,99218.22
2022-12-19T13:02:34.240Z,99221.75
2022-12-19T13:05:53.707Z,99213.19
2022-12-19T13:09:03.865Z,99208.47
2022-12-19T13:12:35.135Z,99196.94
2022-12-19T13:15:41.202Z,99207.44
2022-12-19T13:19:04.262Z,99201.34
2022-12-19T13:22:38.568Z,99210.84
2022-12-19T13:25:50.526Z,99204.53
2022-12-19T13:28:53.258Z,99202.84
2022-12-19T13:32:11.781Z,99207.31
2022-12-19T13:36:44.690Z,99218.34
2022-12-19T13:39:54.294Z,99213.16
2022-12-19T13:42:41.789Z,99196.53
2022-12-19T13:45:50.481Z,99204.53
2022-12-19T13:48:57.748Z,99201.69
2022-12-19T13:52:00.899Z,99193.44
2022-12-19T13:55:03.620Z,99205.41
2022-12-19T13:58:06.428Z,99209.38
2022-12-19T14:01:21.495Z,99208.31
2022-12-19T14:04:30.159Z,99208.53
2022-12-19T14:07:37.397Z,99210.59
2022-12-19T14:11:34.826Z,99215.00
2022-12-19T14:14:33.358Z,99225.47
2022-12-19T14:17:36.081Z,99220.78
2022-12-19T14:22:09.531Z,99209.78
2022-12-19T14:24:15.088Z,99203.31
2022-12-19T14:28:23.736Z,99213.16
2022-12-19T14:30:42.690Z,99224.84
2022-12-19T14:34:10.964Z,99221.94
2022-12-19T14:38:54.236Z,99228.19
2022-12-19T14:41:07.823Z,99228.84
2022-12-19T14:54:03.816Z,99218.28
2022-12-19T14:54:14.618Z,99213.22
2022-12-19T14:54:17.043Z,99221.59
2022-12-19T14:58:53.971Z,99221.13
2022-12-19T15:01:23.320Z,99224.13
2022-12-19T15:04:50.875Z,99228.50
2022-12-19T15:07:53.081Z,99225.81
2022-12-19T15:11:40.104Z,99223.91
2022-12-19T15:14:51.619Z,99212.25
2022-12-19T15:17:58.324Z,99207.94
2022-12-19T15:21:02.668Z,99193.84
2022-12-19T15:24:05.703Z,99193.59
2022-12-19T15:27:13.749Z,99203.06
2022-12-19T15:30:18.684Z,99201.16
2022-12-19T15:33:21.442Z,99207.66
2022-12-19T15:36:24.177Z,99196.00
2022-12-19T15:39:29.781Z,99196.50
2022-12-19T15:42:34.674Z,99199.75
2022-12-19T15:45:37.301Z,99208.66
2022-12-19T15:48:41.655Z,99212.72
2022-12-19T15:51:44.498Z,99208.91
2022-12-19T15:54:49.143Z,99208.09
2022-12-19T15:57:56.603Z,99199.72
2022-12-19T16:01:01.455Z,99196.44
2022-12-19T16:04:04.462Z,99192.91
2022-12-19T16:07:13.689Z,99192.09
2022-12-19T16:10:17.358Z,99194.22
2022-12-19T16:13:23.534Z,99191.75
2022-12-19T16:16:26.350Z,99196.94
2022-12-19T16:19:31.164Z,99192.31
2022-12-19T16:22:33.845Z,99186.09
2022-12-19T16:25:39.635Z,99188.56
2022-12-19T16:28:44.203Z,99182.06
2022-12-19T16:31:47.161Z,99177.44
2022-12-19T16:34:49.935Z,99176.38
2022-12-19T16:37:52.629Z,99179.06
2022-12-19T16:40:57.763Z,99165.03
2022-12-19T16:44:01.967Z,99168.78
2022-12-19T16:47:04.835Z,99174.69
2022-12-19T16:50:15.664Z,99178.41
2022-12-19T16:53:18.753Z,99175.97
2022-12-19T16:56:25.305Z,99178.91
2022-12-19T16:59:32.358Z,99169.16
2022-12-19T17:02:43.602Z,99158.06
2022-12-19T17:05:46.449Z,99166.44
2022-12-19T17:08:49.787Z,99173.75
2022-12-19T17:11:55.088Z,99167.50
2022-12-19T17:14:59.623Z,99161.25
2022-12-19T17:18:04.858Z,99162.00
2022-12-19T17:21:07.686Z,99164.19
2022-12-19T17:24:13.790Z,99166.34
2022-12-19T17:27:17.397Z,99159.09
2022-12-19T17:30:22.678Z,99165.31
2022-12-19T17:33:37.368Z,99170.19
2022-12-19T17:36:40.221Z,99175.94
2022-12-19T17:39:43.084Z,99180.56
2022-12-19T17:42:45.800Z,99172.81
2022-12-19T17:45:50.952Z,99171.28
2022-12-19T17:48:54.576Z,99174.50
2022-12-19T17:51:57.245Z,99178.84
2022-12-19T17:54:59.855Z,99181.25
2022-12-19T17:58:02.566Z,99180.63
2022-12-19T18:01:06.946Z,99188.34
2022-12-19T18:04:13.655Z,99180.56
2022-12-19T18:07:17.009Z,99181.38
2022-12-19T18:10:22.582Z,99175.69
2022-12-19T18:13:26.092Z,99156.81
2022-12-19T18:16:31.152Z,99166.03
2022-12-19T18:19:35.561Z,99179.81
2022-12-19T18:22:38.255Z,99188.19
2022-12-19T18:25:41.132Z,99183.63
2022-12-19T18:28:44.245Z,99188.78
2022-12-19T18:31:51.175Z,99184.97
2022-12-19T18:34:54.207Z,99194.16
2022-12-19T18:37:59.073Z,99186.59
2022-12-19T18:41:01.843Z,99189.28
2022-12-19T18:44:04.457Z,99183.03
2022-12-19T18:47:17.916Z,99180.09
2022-12-19T18:50:22.499Z,99186.31
2022-12-19T18:53:34.589Z,99174.69
2022-12-19T18:56:38.096Z,99179.03
2022-12-19T18:59:40.646Z,99172.59
2022-12-19T19:02:47.915Z,99177.44
2022-12-19T19:05:50.798Z,99176.91
2022-12-19T19:08:53.685Z,99184.47
2022-12-19T19:11:56.413Z,99176.34
2022-12-19T19:14:59.053Z,99173.66
2022-12-19T19:18:04.285Z,99165.06
2022-12-19T19:21:07.763Z,99172.59
2022-12-19T19:24:13.508Z,99164.47
2022-12-19T19:27:16.120Z,99168.78
2022-12-19T19:30:19.734Z,99169.84
2022-12-19T19:33:26.150Z,99169.28
2022-12-19T19:36:30.961Z,99160.34
2022-12-19T19:39:34.900Z,99154.63
2022-12-19T19:42:37.734Z,99155.44
2022-12-19T19:45:43.438Z,99161.03
2022-12-19T19:48:47.863Z,99164.56
2022-12-19T19:51:52.347Z,99164.00
2022-12-19T19:54:57.060Z,99148.94
2022-12-19T19:57:59.835Z,99156.00
2022-12-19T20:01:08.277Z,99158.94
2022-12-19T20:04:12.348Z,99154.63
2022-12-19T20:07:15.510Z,99152.72
2022-12-19T20:10:18.469Z,99153.84
2022-12-19T20:13:21.631Z,99148.19
2022-12-19T20:16:24.994Z,99150.88
2022-12-19T20:19:29.241Z,99146.06
2022-12-19T20:22:32.158Z,99144.19
2022-12-19T20:25:39.822Z,99160.72
2022-12-19T20:28:48.332Z,99165.00
2022-12-19T20:31:52.035Z,99167.16
2022-12-19T20:34:56.093Z,99172.56
2022-12-19T20:37:58.838Z,99174.22
2022-12-19T20:41:01.580Z,99178.53
2022-12-19T20:44:04.509Z,99175.06
2022-12-19T20:47:07.259Z,99163.44
2022-12-19T20:50:13.172Z,99165.88
2022-12-19T20:53:15.822Z,99169.63
2022-12-19T20:56:19.740Z,99173.16
2022-12-19T20:59:22.542Z,99164.53
2022-12-19T21:02:25.392Z,99163.47
2022-12-19T21:05:29.903Z,99168.06
2022-12-19T21:08:32.690Z,99169.94
2022-12-19T21:11:36.558Z,99172.63
2022-12-19T21:14:39.045Z,99167.75
2022-12-19T21:17:41.644Z,99168.03
2022-12-19T21:20:46.211Z,99164.25
2022-12-19T21:23:49.113Z,99165.59
2022-12-19T21:26:57.670Z,99173.97
2022-12-19T21:30:01.006Z,99175.63
2022-12-19T21:33:03.997Z,99181.56
2022-12-19T21:36:09.531Z,99184.25
2022-12-19T21:39:12.822Z,99179.94
2022-12-19T21:42:15.442Z,99179.38
2022-12-19T21:45:18.349Z,99170.69
2022-12-19T21:48:20.919Z,99175.88
2022-12-19T21:51:26.404Z,99174.75
2022-12-19T21:54:29.072Z,99179.63
2022-12-19T21:57:31.785Z,99186.34
2022-12-19T22:00:34.468Z,99191.50
2022-12-19T22:03:37.687Z,99204.19
2022-12-19T22:06:41.806Z,99200.97
2022-12-19T22:09:44.395Z,99195.28
2022-12-19T22:12:46.934Z,99192.56
2022-12-19T22:15:49.559Z,99183.66
2022-12-19T22:18:52.954Z,99187.19
2022-12-19T22:21:57.207Z,99174.75
2022-12-19T22:24:59.947Z,99186.09
2022-12-19T22:28:02.762Z,99186.44
2022-12-19T22:31:14.289Z,99187.25
2022-12-19T22:34:18.571Z,99189.41
2022-12-19T22:37:25.774Z,99187.78
2022-12-19T22:40:28.354Z,99181.84
2022-12-19T22:43:31.119Z,99184.31
2022-12-19T22:46:35.070Z,99187.53
2022-12-19T22:49:37.852Z,99184.56
2022-12-19T22:52:41.742Z,99183.25
2022-12-19T22:55:44.474Z,99172.69
2022-12-19T22:58:48.653Z,99175.09
2022-12-19T23:01:51.526Z,99158.34
2022-12-19T23:04:54.334Z,99170.75
2022-12-19T23:07:58.468Z,99162.66
2022-12-19T23:11:01.133Z,99168.03
2022-12-19T23:14:04.960Z,99167.50
2022-12-19T23:17:07.594Z,99165.06
2022-12-19T23:20:10.598Z,99166.69
2022-12-19T23:23:14.636Z,99158.00
2022-12-19T23:26:19.971Z,99165.31
2022-12-19T23:29:22.536Z,99163.69
2022-12-19T23:32:25.090Z,99157.47
2022-12-19T23:35:28.000Z,99162.13
2022-12-19T23:38:32.024Z,99162.34
2022-12-19T23:41:34.672Z,99168.81
2022-12-19T23:44:37.338Z,99154.72
2022-12-19T23:47:40.144Z,99160.63
2022-12-19T23:50:42.695Z,99150.63
2022-12-19T23:53:47.505Z,99164.44
2022-12-19T23:56:50.088Z,99151.44
2022-12-19T23:59:52.672Z,99153.63
